createdAt,value
2023-02-16T00:00:52.195Z,95197.59
2023-02-16T00:03:21.530Z,95198.28
2023-02-16T00:05:48.672Z,95192.22
2023-02-16T00:08:15.187Z,95189.75
2023-02-16T00:10:42.163Z,95194.59
2023-02-16T00:13:47.349Z,95188.09
2023-02-16T00:16:18.557Z,95187.06
2023-02-16T00:18:45.692Z,95191.66
2023-02-16T00:21:12.185Z,95190.53
2023-02-16T00:23:38.667Z,95195.78
2023-02-16T00:26:05.914Z,95196.09
2023-02-16T00:28:32.675Z,95180.97
2023-02-16T00:30:59.175Z,95196.31
2023-02-16T00:33:25.688Z,95190.88
2023-02-16T00:35:52.149Z,95193.22
2023-02-16T00:38:18.572Z,95194.63
2023-02-16T00:40:45.015Z,95204.19
2023-02-16T00:43:25.113Z,95200.63
2023-02-16T00:45:51.872Z,95197.63
2023-02-16T00:48:18.332Z,95203.47
2023-02-16T00:50:44.988Z,95197.88
2023-02-16T00:53:11.687Z,95206.00
2023-02-16T00:55:39.629Z,95200.72
2023-02-16T00:58:25.589Z,95193.63
2023-02-16T01:00:55.193Z,95204.75
2023-02-16T01:03:27.523Z,95196.47
2023-02-16T01:06:14.488Z,95189.75
2023-02-16T01:09:00.198Z,95184.13
2023-02-16T01:11:27.093Z,95180.63
2023-02-16T01:13:56.120Z,95177.50
2023-02-16T01:16:26.918Z,95178.34
2023-02-16T01:18:53.873Z,95183.03
2023-02-16T01:21:23.636Z,95187.28
2023-02-16T01:23:50.078Z,95192.16
2023-02-16T01:26:19.700Z,95191.09
2023-02-16T01:28:47.517Z,95185.44
2023-02-16T01:31:16.438Z,95187.63
2023-02-16T01:33:43.432Z,95187.50
2023-02-16T01:36:33.116Z,95184.94
2023-02-16T01:39:00.380Z,95185.91
2023-02-16T01:41:54.967Z,95179.56
2023-02-16T01:44:25.631Z,95179.97
2023-02-16T01:47:05.108Z,95183.78
2023-02-16T01:49:31.603Z,95174.69
2023-02-16T01:52:06.710Z,95179.06
2023-02-16T01:55:03.199Z,95166.28
2023-02-16T01:57:41.302Z,95180.25
2023-02-16T02:00:14.688Z,95176.72
2023-02-16T02:02:45.224Z,95169.97
2023-02-16T02:05:37.173Z,95169.19
2023-02-16T02:08:39.731Z,95169.19
2023-02-16T02:11:17.284Z,95174.56
2023-02-16T02:14:00.532Z,95166.06
2023-02-16T02:16:28.179Z,95154.22
2023-02-16T02:18:55.033Z,95154.22
2023-02-16T02:22:03.221Z,95148.50
2023-02-16T02:24:57.500Z,95148.78
2023-02-16T02:27:27.013Z,95145.34
2023-02-16T02:30:13.131Z,95150.97
2023-02-16T02:33:17.733Z,95141.94
2023-02-16T02:35:56.382Z,95143.38
2023-02-16T02:38:53.337Z,95140.88
2023-02-16T02:42:01.903Z,95133.66
2023-02-16T02:44:30.096Z,95134.88
2023-02-16T02:46:56.815Z,95135.44
2023-02-16T02:49:23.350Z,95131.88
2023-02-16T02:51:51.044Z,95127.50
2023-02-16T02:54:50.784Z,95134.00
2023-02-16T02:57:42.266Z,95134.94
2023-02-16T03:00:33.218Z,95133.69
2023-02-16T03:03:06.309Z,95140.31
2023-02-16T03:05:34.812Z,95135.00
2023-02-16T03:08:14.324Z,95141.47
2023-02-16T03:11:12.859Z,95141.47
2023-02-16T03:13:43.153Z,95145.81
2023-02-16T03:16:27.970Z,95142.28
2023-02-16T03:19:15.179Z,95146.63
2023-02-16T03:22:00.510Z,95139.91
2023-02-16T03:24:48.929Z,95130.03
2023-02-16T03:27:38.718Z,95132.56
2023-02-16T03:30:06.836Z,95135.13
2023-02-16T03:32:34.534Z,95133.13
2023-02-16T03:35:01.080Z,95133.50
2023-02-16T03:37:27.613Z,95133.06
2023-02-16T03:40:12.975Z,95136.00
2023-02-16T03:42:39.467Z,95131.44
2023-02-16T03:45:06.242Z,95131.44
2023-02-16T03:47:32.672Z,95130.22
2023-02-16T03:49:59.183Z,95136.16
2023-02-16T03:52:25.552Z,95136.94
2023-02-16T03:54:51.934Z,95136.16
2023-02-16T03:57:18.316Z,95145.41
2023-02-16T03:59:44.689Z,95140.06
2023-02-16T04:02:11.189Z,95155.69
2023-02-16T04:04:37.675Z,95151.56
2023-02-16T04:07:04.075Z,95157.50
2023-02-16T04:09:30.467Z,95148.63
2023-02-16T04:12:15.562Z,95156.75
2023-02-16T04:14:43.679Z,95155.03
2023-02-16T04:17:10.356Z,95148.63
2023-02-16T04:19:36.772Z,95167.22
2023-02-16T04:22:03.183Z,95157.03
2023-02-16T04:24:29.625Z,95166.13
2023-02-16T04:26:56.014Z,95172.09
2023-02-16T04:29:22.610Z,95166.66
2023-02-16T04:31:49.866Z,95172.22
2023-02-16T04:34:16.436Z,95169.06
2023-02-16T04:36:42.829Z,95173.41
2023-02-16T04:39:09.216Z,95173.22
2023-02-16T04:41:35.695Z,95177.34
2023-02-16T04:44:02.092Z,95174.94
2023-02-16T04:46:28.543Z,95171.75
2023-02-16T04:48:55.499Z,95184.38
2023-02-16T04:51:21.886Z,95180.44
2023-02-16T04:53:48.298Z,95173.16
2023-02-16T04:56:15.143Z,95175.72
2023-02-16T04:58:41.619Z,95171.94
2023-02-16T05:01:08.432Z,95168.59
2023-02-16T05:03:34.933Z,95168.97
2023-02-16T05:06:01.322Z,95174.47
2023-02-16T05:08:27.753Z,95170.28
2023-02-16T05:11:12.942Z,95175.56
2023-02-16T05:13:57.619Z,95176.94
2023-02-16T05:16:24.671Z,95176.41
2023-02-16T05:18:51.051Z,95179.97
2023-02-16T05:21:32.637Z,95181.16
2023-02-16T05:24:04.487Z,95187.72
2023-02-16T05:26:32.077Z,95189.13
2023-02-16T05:28:58.651Z,95181.69
2023-02-16T05:31:26.300Z,95193.13
2023-02-16T05:33:53.236Z,95184.78
2023-02-16T05:36:20.231Z,95192.63
2023-02-16T05:38:46.908Z,95187.88
2023-02-16T05:41:23.293Z,95187.09
2023-02-16T05:43:52.236Z,95185.88
2023-02-16T05:46:19.589Z,95180.19
2023-02-16T05:48:46.080Z,95196.34
2023-02-16T05:51:13.020Z,95192.97
2023-02-16T05:53:39.467Z,95199.09
2023-02-16T05:56:07.437Z,95211.78
2023-02-16T05:58:33.982Z,95212.41
2023-02-16T06:01:00.919Z,95214.47
2023-02-16T06:03:27.758Z,95208.56
2023-02-16T06:05:56.005Z,95207.41
2023-02-16T06:08:22.848Z,95202.69
2023-02-16T06:10:50.226Z,95207.84
2023-02-16T06:13:17.472Z,95209.38
2023-02-16T06:15:44.206Z,95211.75
2023-02-16T06:18:11.385Z,95217.31
2023-02-16T06:20:39.019Z,95218.50
2023-02-16T06:23:06.858Z,95213.16
2023-02-16T06:25:33.887Z,95220.81
2023-02-16T06:28:00.397Z,95225.13
2023-02-16T06:30:27.183Z,95222.72
2023-02-16T06:32:53.655Z,95225.06
2023-02-16T06:35:20.472Z,95226.28
2023-02-16T06:37:46.942Z,95226.69
2023-02-16T06:40:14.300Z,95228.69
2023-02-16T06:42:42.170Z,95229.06
2023-02-16T06:45:09.903Z,95229.44
2023-02-16T06:47:37.211Z,95234.94
2023-02-16T06:50:06.627Z,95232.59
2023-02-16T06:52:33.108Z,95234.59
2023-02-16T06:54:59.534Z,95240.69
2023-02-16T06:57:25.909Z,95245.25
2023-02-16T06:59:52.295Z,95244.88
2023-02-16T07:02:18.741Z,95250.03
2023-02-16T07:04:45.545Z,95246.66
2023-02-16T07:07:11.938Z,95243.69
2023-02-16T07:09:38.888Z,95246.78
2023-02-16T07:12:05.755Z,95244.19
2023-02-16T07:14:32.339Z,95249.06
2023-02-16T07:17:03.052Z,95250.19
2023-02-16T07:19:32.696Z,95255.50
2023-02-16T07:22:02.667Z,95254.50
2023-02-16T07:24:29.077Z,95249.38
2023-02-16T07:26:55.938Z,95247.44
2023-02-16T07:29:22.465Z,95258.47
2023-02-16T07:31:49.064Z,95255.72
2023-02-16T07:34:15.549Z,95255.66
2023-02-16T07:36:42.282Z,95254.25
2023-02-16T07:39:08.695Z,95255.75
2023-02-16T07:41:35.083Z,95258.72
2023-02-16T07:44:07.516Z,95254.69
2023-02-16T07:46:33.918Z,95252.31
2023-02-16T07:49:00.378Z,95264.91
2023-02-16T07:51:30.590Z,95266.41
2023-02-16T07:53:58.149Z,95267.56
2023-02-16T07:56:28.254Z,95266.34
2023-02-16T07:58:59.325Z,95272.63
2023-02-16T08:01:26.296Z,95265.72
2023-02-16T08:03:53.512Z,95272.22
2023-02-16T08:06:20.254Z,95270.78
2023-02-16T08:08:47.077Z,95270.34
2023-02-16T08:11:17.822Z,95278.22
2023-02-16T08:13:45.309Z,95283.16
2023-02-16T08:16:14.750Z,95269.06
2023-02-16T08:18:45.127Z,95270.81
2023-02-16T08:21:17.316Z,95268.88
2023-02-16T08:23:47.572Z,95263.38
2023-02-16T08:26:17.156Z,95264.94
2023-02-16T08:28:47.487Z,95255.16
2023-02-16T08:31:18.940Z,95256.22
2023-02-16T08:33:46.810Z,95263.25
2023-02-16T08:36:21.656Z,95263.50
2023-02-16T08:38:50.858Z,95258.84
2023-02-16T08:41:21.389Z,95252.09
2023-02-16T08:43:48.449Z,95257.69
2023-02-16T08:46:15.950Z,95252.94
2023-02-16T08:48:45.146Z,95261.13
2023-02-16T08:51:17.562Z,95265.66
2023-02-16T08:53:47.854Z,95260.53
2023-02-16T08:56:16.709Z,95261.38
2023-02-16T08:58:45.840Z,95257.81
2023-02-16T09:01:15.122Z,95258.63
2023-02-16T09:03:44.840Z,95260.22
2023-02-16T09:06:13.388Z,95265.34
2023-02-16T09:08:40.687Z,95263.47
2023-02-16T09:11:11.985Z,95265.72
2023-02-16T09:13:39.658Z,95263.59
2023-02-16T09:16:11.479Z,95266.56
2023-02-16T09:18:39.038Z,95273.44
2023-02-16T09:21:11.399Z,95279.31
2023-02-16T09:23:40.158Z,95276.34
2023-02-16T09:26:09.588Z,95270.81
2023-02-16T09:28:40.230Z,95273.28
2023-02-16T09:31:11.894Z,95273.16
2023-02-16T09:33:39.971Z,95274.81
2023-02-16T09:36:08.791Z,95268.47
2023-02-16T09:38:36.569Z,95273.00
2023-02-16T09:41:41.312Z,95273.88
2023-02-16T09:44:17.756Z,95262.81
2023-02-16T09:46:44.744Z,95272.56
2023-02-16T09:49:24.952Z,95273.19
2023-02-16T09:52:33.147Z,95267.84
2023-02-16T09:55:01.411Z,95258.06
2023-02-16T09:57:55.663Z,95266.78
2023-02-16T10:00:44.187Z,95259.59
2023-02-16T10:03:18.181Z,95259.41
2023-02-16T10:06:05.560Z,95263.63
2023-02-16T10:08:39.942Z,95258.44
2023-02-16T10:11:41.508Z,95259.28
2023-02-16T10:14:30.680Z,95254.88
2023-02-16T10:17:09.046Z,95251.53
2023-02-16T10:19:48.800Z,95251.03
2023-02-16T10:22:28.620Z,95239.03
2023-02-16T10:25:20.131Z,95246.59
2023-02-16T10:27:50.066Z,95243.47
2023-02-16T10:30:22.183Z,95244.47
2023-02-16T10:32:56.277Z,95239.75
2023-02-16T10:35:47.061Z,95238.13
2023-02-16T10:38:43.329Z,95239.13
2023-02-16T10:41:32.756Z,95243.78
2023-02-16T10:44:30.729Z,95246.63
2023-02-16T10:47:01.679Z,95243.16
2023-02-16T10:49:30.083Z,95249.03
2023-02-16T10:51:57.725Z,95238.25
2023-02-16T10:54:32.358Z,95233.53
2023-02-16T10:57:01.569Z,95237.84
2023-02-16T10:59:39.463Z,95235.94
2023-02-16T11:02:20.826Z,95230.06
2023-02-16T11:04:48.607Z,95236.75
2023-02-16T11:07:33.830Z,95235.13
2023-02-16T11:10:19.448Z,95228.50
2023-02-16T11:12:46.246Z,95231.72
2023-02-16T11:15:19.087Z,95218.53
2023-02-16T11:17:52.521Z,95219.78
2023-02-16T11:20:47.533Z,95214.81
2023-02-16T11:23:31.213Z,95210.84
2023-02-16T11:26:06.484Z,95205.41
2023-02-16T11:28:38.598Z,95204.78
2023-02-16T11:31:17.860Z,95208.22
2023-02-16T11:33:59.464Z,95205.91
2023-02-16T11:36:42.774Z,95214.09
2023-02-16T11:39:15.028Z,95208.72
2023-02-16T11:41:51.769Z,95201.22
2023-02-16T11:44:27.014Z,95192.56
2023-02-16T11:46:56.507Z,95190.22
2023-02-16T11:49:29.617Z,95183.28
2023-02-16T11:51:56.231Z,95190.69
2023-02-16T11:54:22.851Z,95179.81
2023-02-16T11:57:10.039Z,95175.38
2023-02-16T11:59:39.898Z,95185.03
2023-02-16T12:02:12.151Z,95173.75
2023-02-16T12:04:54.056Z,95178.00
2023-02-16T12:07:50.056Z,95173.25
2023-02-16T12:10:21.673Z,95173.94
2023-02-16T12:12:55.299Z,95168.84
2023-02-16T12:15:42.337Z,95163.97
2023-02-16T12:18:26.941Z,95162.22
2023-02-16T12:21:17.104Z,95157.47
2023-02-16T12:24:02.222Z,95162.56
2023-02-16T12:26:51.870Z,95143.25
2023-02-16T12:30:09.702Z,95143.72
2023-02-16T12:32:45.705Z,95142.53
2023-02-16T12:35:12.745Z,95133.69
2023-02-16T12:37:46.691Z,95133.91
2023-02-16T12:40:51.858Z,95136.25
2023-02-16T12:43:31.141Z,95124.69
2023-02-16T12:46:04.945Z,95121.41
2023-02-16T12:48:45.749Z,95118.81
2023-02-16T12:51:18.310Z,95115.06
2023-02-16T12:53:57.595Z,95103.47
2023-02-16T12:56:32.981Z,95109.63
2023-02-16T12:59:17.953Z,95109.94
2023-02-16T13:01:47.763Z,95105.22
2023-02-16T13:05:03.471Z,95110.19
2023-02-16T13:07:38.338Z,95105.59
2023-02-16T13:10:36.328Z,95101.47
2023-02-16T13:13:08.985Z,95093.53
2023-02-16T13:15:43.494Z,95090.50
2023-02-16T13:18:21.165Z,95092.28
2023-02-16T13:20:55.675Z,95090.88
2023-02-16T13:23:39.063Z,95091.81
2023-02-16T13:26:35.127Z,95078.47
2023-02-16T13:29:28.966Z,95078.13
2023-02-16T13:32:20.244Z,95084.97
2023-02-16T13:35:02.772Z,95073.97
2023-02-16T13:38:08.097Z,95071.34
2023-02-16T13:40:40.514Z,95065.47
2023-02-16T13:43:18.897Z,95070.44
2023-02-16T13:45:47.455Z,95061.41
2023-02-16T13:48:31.607Z,95069.16
2023-02-16T13:51:02.470Z,95067.94
2023-02-16T13:53:52.492Z,95067.28
2023-02-16T13:56:37.171Z,95074.25
2023-02-16T13:59:18.758Z,95076.78
2023-02-16T14:01:46.490Z,95078.41
2023-02-16T14:04:32.881Z,95076.81
2023-02-16T14:07:07.232Z,95084.97
2023-02-16T14:09:46.960Z,95091.22
2023-02-16T14:12:16.589Z,95081.38
2023-02-16T14:14:46.264Z,95094.47
2023-02-16T14:17:18.880Z,95088.84
2023-02-16T14:19:55.588Z,95091.66
2023-02-16T14:22:29.233Z,95097.91
2023-02-16T14:24:58.453Z,95095.41
2023-02-16T14:27:47.306Z,95099.72
2023-02-16T14:30:35.641Z,95102.53
2023-02-16T14:33:16.958Z,95102.81
2023-02-16T14:35:58.727Z,95102.31
2023-02-16T14:38:40.516Z,95100.56
2023-02-16T14:41:23.800Z,95094.38
2023-02-16T14:44:02.449Z,95104.34
2023-02-16T14:47:00.319Z,95093.03
2023-02-16T14:50:05.335Z,95101.53
2023-02-16T14:52:53.816Z,95100.75
2023-02-16T14:55:55.101Z,95096.00
2023-02-16T14:58:29.628Z,95096.47
2023-02-16T15:01:11.181Z,95100.13
2023-02-16T15:03:45.331Z,95103.03
2023-02-16T15:06:19.666Z,95103.16
2023-02-16T15:08:56.950Z,95095.53
2023-02-16T15:12:01.828Z,95096.22
2023-02-16T15:14:29.832Z,95096.09
2023-02-16T15:16:57.986Z,95097.97
2023-02-16T15:19:29.528Z,95090.28
2023-02-16T15:22:28.982Z,95094.28
2023-02-16T15:25:07.894Z,95094.59
2023-02-16T15:27:34.320Z,95098.31
2023-02-16T15:30:22.323Z,95095.78
2023-02-16T15:32:56.136Z,95092.16
2023-02-16T15:35:27.378Z,95090.13
2023-02-16T15:38:05.885Z,95098.75
2023-02-16T15:40:35.029Z,95093.38
2023-02-16T15:43:18.077Z,95083.75
2023-02-16T15:45:49.010Z,95092.91
2023-02-16T15:48:24.848Z,95089.31
2023-02-16T15:50:57.220Z,95079.72
2023-02-16T15:53:34.644Z,95084.16
2023-02-16T15:56:04.785Z,95085.50
2023-02-16T15:58:32.860Z,95093.63
2023-02-16T16:01:00.409Z,95085.28
2023-02-16T16:03:26.990Z,95086.28
2023-02-16T16:06:06.254Z,95090.47
2023-02-16T16:08:33.272Z,95083.19
2023-02-16T16:11:00.342Z,95082.44
2023-02-16T16:13:29.973Z,95091.81
2023-02-16T16:16:01.748Z,95087.44
2023-02-16T16:18:50.148Z,95083.09
2023-02-16T16:21:24.818Z,95085.75
2023-02-16T16:24:05.634Z,95078.00
2023-02-16T16:26:52.545Z,95081.22
2023-02-16T16:29:29.972Z,95083.63
2023-02-16T16:31:56.716Z,95082.13
2023-02-16T16:34:35.543Z,95081.13
2023-02-16T16:37:03.784Z,95076.50
2023-02-16T16:39:33.512Z,95077.56
2023-02-16T16:42:00.092Z,95082.31
2023-02-16T16:44:34.286Z,95079.19
2023-02-16T16:47:29.422Z,95091.22
2023-02-16T16:50:09.312Z,95081.06
2023-02-16T16:52:42.524Z,95083.97
2023-02-16T16:55:34.988Z,95073.59
2023-02-16T16:58:08.093Z,95076.19
2023-02-16T17:00:38.349Z,95083.25
2023-02-16T17:03:07.232Z,95082.75
2023-02-16T17:05:35.864Z,95099.69
2023-02-16T17:08:02.318Z,95093.97
2023-02-16T17:10:29.423Z,95098.16
2023-02-16T17:12:58.946Z,95101.56
2023-02-16T17:15:28.384Z,95108.84
2023-02-16T17:17:55.546Z,95100.03
2023-02-16T17:20:21.958Z,95100.81
2023-02-16T17:22:48.446Z,95103.41
2023-02-16T17:25:15.128Z,95111.50
2023-02-16T17:27:41.505Z,95109.94
2023-02-16T17:30:08.402Z,95115.38
2023-02-16T17:32:34.817Z,95117.75
2023-02-16T17:35:01.299Z,95126.31
2023-02-16T17:37:27.797Z,95122.66
2023-02-16T17:39:54.175Z,95114.88
2023-02-16T17:42:20.673Z,95114.34
2023-02-16T17:44:47.075Z,95127.34
2023-02-16T17:47:15.506Z,95125.28
2023-02-16T17:49:41.936Z,95124.75
2023-02-16T17:52:12.628Z,95118.50
2023-02-16T17:54:39.471Z,95130.47
2023-02-16T17:57:05.918Z,95129.94
2023-02-16T17:59:34.277Z,95131.50
2023-02-16T18:02:00.757Z,95135.41
2023-02-16T18:04:27.184Z,95134.63
2023-02-16T18:06:53.675Z,95128.63
2023-02-16T18:09:24.258Z,95131.00
2023-02-16T18:11:51.073Z,95128.91
2023-02-16T18:14:17.681Z,95129.41
2023-02-16T18:16:44.199Z,95125.75
2023-02-16T18:19:14.972Z,95128.91
2023-02-16T18:21:41.417Z,95124.72
2023-02-16T18:24:07.893Z,95113.25
2023-02-16T18:26:34.520Z,95130.44
2023-02-16T18:29:00.922Z,95131.47
2023-02-16T18:31:27.463Z,95129.91
2023-02-16T18:33:54.026Z,95120.31
2023-02-16T18:36:20.432Z,95120.03
2023-02-16T18:38:46.912Z,95122.63
2023-02-16T18:41:13.729Z,95113.78
2023-02-16T18:43:40.173Z,95131.47
2023-02-16T18:46:08.146Z,95120.81
2023-02-16T18:48:34.811Z,95128.09
2023-02-16T18:51:09.607Z,95121.09
2023-02-16T18:53:38.909Z,95126.28
2023-02-16T18:56:07.403Z,95126.81
2023-02-16T18:58:35.051Z,95133.03
2023-02-16T19:01:01.513Z,95137.97
2023-02-16T19:03:30.070Z,95136.16
2023-02-16T19:05:56.707Z,95141.34
2023-02-16T19:08:23.257Z,95147.56
2023-02-16T19:10:49.642Z,95144.19
2023-02-16T19:13:16.050Z,95148.09
2023-02-16T19:15:42.905Z,95146.53
2023-02-16T19:18:09.276Z,95144.72
2023-02-16T19:20:36.029Z,95151.75
2023-02-16T19:23:02.470Z,95152.75
2023-02-16T19:25:29.276Z,95145.22
2023-02-16T19:27:55.708Z,95142.13
2023-02-16T19:30:24.162Z,95147.56
2023-02-16T19:32:50.682Z,95142.34
2023-02-16T19:35:18.067Z,95135.34
2023-02-16T19:37:44.655Z,95139.75
2023-02-16T19:40:11.894Z,95137.66
2023-02-16T19:42:39.024Z,95142.34
2023-02-16T19:45:06.065Z,95135.56
2023-02-16T19:47:32.865Z,95138.72
2023-02-16T19:49:59.291Z,95131.44
2023-02-16T19:52:25.853Z,95135.63
2023-02-16T19:54:52.368Z,95134.31
2023-02-16T19:57:18.920Z,95135.88
2023-02-16T19:59:45.340Z,95142.38
2023-02-16T20:02:12.947Z,95148.09
2023-02-16T20:04:39.349Z,95142.91
2023-02-16T20:07:05.886Z,95141.34
2023-02-16T20:09:32.276Z,95142.13
2023-02-16T20:11:58.740Z,95137.94
2023-02-16T20:14:25.167Z,95136.13
2023-02-16T20:16:51.821Z,95141.34
2023-02-16T20:19:18.366Z,95138.22
2023-02-16T20:21:46.218Z,95134.31
2023-02-16T20:24:13.460Z,95147.56
2023-02-16T20:26:43.072Z,95140.28
2023-02-16T20:29:12.401Z,95143.94
2023-02-16T20:31:47.128Z,95136.66
2023-02-16T20:34:13.613Z,95139.75
2023-02-16T20:36:40.016Z,95147.03
2023-02-16T20:39:07.789Z,95140.78
2023-02-16T20:41:34.368Z,95147.03
2023-02-16T20:44:01.126Z,95145.94
2023-02-16T20:46:27.665Z,95148.03
2023-02-16T20:48:54.265Z,95141.03
2023-02-16T20:51:20.888Z,95138.94
2023-02-16T20:53:47.588Z,95142.56
2023-02-16T20:56:16.939Z,95144.41
2023-02-16T20:58:45.101Z,95134.78
2023-02-16T21:01:21.990Z,95144.41
2023-02-16T21:03:50.301Z,95131.16
2023-02-16T21:06:17.352Z,95133.22
2023-02-16T21:08:44.115Z,95137.88
2023-02-16T21:11:10.842Z,95112.16
2023-02-16T21:13:38.616Z,95126.19
2023-02-16T21:16:07.163Z,95120.25
2023-02-16T21:18:34.949Z,95118.66
2023-02-16T21:21:02.006Z,95116.56
2023-02-16T21:23:28.574Z,95120.19
2023-02-16T21:26:03.461Z,95115.25
2023-02-16T21:28:30.410Z,95114.75
2023-02-16T21:31:02.209Z,95109.28
2023-02-16T21:33:28.677Z,95113.66
2023-02-16T21:36:02.747Z,95119.38
2023-02-16T21:38:29.356Z,95111.28
2023-02-16T21:41:21.488Z,95127.16
2023-02-16T21:43:47.917Z,95117.25
2023-02-16T21:46:14.400Z,95116.47
2023-02-16T21:48:47.304Z,95128.16
2023-02-16T21:51:28.754Z,95114.66
2023-02-16T21:53:55.608Z,95122.44
2023-02-16T21:56:30.986Z,95124.53
2023-02-16T21:58:57.994Z,95120.63
2023-02-16T22:01:28.011Z,95133.84
2023-02-16T22:03:59.196Z,95138.53
2023-02-16T22:06:26.837Z,95133.59
2023-02-16T22:08:53.654Z,95129.94
2023-02-16T22:11:20.851Z,95125.50
2023-02-16T22:13:47.549Z,95121.84
2023-02-16T22:16:17.532Z,95119.53
2023-02-16T22:18:44.468Z,95115.13
2023-02-16T22:21:11.502Z,95104.47
2023-02-16T22:23:39.168Z,95102.66
2023-02-16T22:26:07.108Z,95103.19
2023-02-16T22:28:35.453Z,95100.06
2023-02-16T22:31:09.106Z,95101.16
2023-02-16T22:33:35.627Z,95094.91
2023-02-16T22:36:13.705Z,95088.97
2023-02-16T22:38:44.838Z,95090.22
2023-02-16T22:41:11.990Z,95100.91
2023-02-16T22:43:40.511Z,95085.03
2023-02-16T22:46:09.383Z,95101.16
2023-02-16T22:48:36.334Z,95093.88
2023-02-16T22:51:04.788Z,95095.69
2023-02-16T22:53:31.375Z,95091.00
2023-02-16T22:55:57.829Z,95095.41
2023-02-16T22:58:24.250Z,95086.09
2023-02-16T23:00:51.494Z,95092.31
2023-02-16T23:03:18.384Z,95085.56
2023-02-16T23:05:44.995Z,95087.09
2023-02-16T23:08:11.723Z,95086.59
2023-02-16T23:10:39.856Z,95094.13
2023-02-16T23:13:08.771Z,95094.38
2023-02-16T23:15:36.090Z,95095.97
2023-02-16T23:18:02.648Z,95095.69
2023-02-16T23:20:29.421Z,95095.41
2023-02-16T23:22:55.852Z,95099.06
2023-02-16T23:25:34.048Z,95100.63
2023-02-16T23:28:03.416Z,95100.63
2023-02-16T23:30:30.840Z,95102.69
2023-02-16T23:32:57.653Z,95099.34
2023-02-16T23:35:24.144Z,95090.22
2023-02-16T23:37:50.533Z,95102.19
2023-02-16T23:40:17.155Z,95091.53
2023-02-16T23:42:43.586Z,95092.81
2023-02-16T23:45:10.023Z,95090.19
2023-02-16T23:47:36.508Z,95088.66
2023-02-16T23:50:02.957Z,95092.78
2023-02-16T23:52:29.366Z,95090.69
2023-02-16T23:54:55.776Z,95090.16
2023-02-16T23:57:22.167Z,95081.31
2023-02-16T23:59:48.630Z,95080.00
